Time;durP1;ratioP1;P1;durP2;ratioP2;P2;SDS_P1;SDS_P2;PMS_P1;PMS_P2;Temp;Humidity;BMP_temperature;BMP_pressure;BME280_temperature;BME280_humidity;BME280_pressure;Samples;Min_cycle;Max_cycle;Signal;HPM_P1;HPM_P2
2023/10/25 00:00:01;;;;;;;33.45;25.92;;;12.80;99.90;;;;;;2055447;28;20026;-71
2023/10/25 00:01:03;;;;;;;38.53;26.50;;;12.80;99.90;;;;;;2050772;28;20038;-71
2023/10/25 00:02:03;;;;;;;35.15;26.40;;;12.80;99.90;;;;;;2047040;28;20034;-70
2023/10/25 00:03:04;;;;;;;36.50;26.55;;;12.80;99.90;;;;;;2059536;28;20038;-70
2023/10/25 00:04:05;;;;;;;33.30;25.95;;;12.80;99.90;;;;;;2056239;28;20037;-70
2023/10/25 00:05:06;;;;;;;35.08;26.00;;;12.80;99.90;;;;;;2062412;28;20034;-70
2023/10/25 00:06:07;;;;;;;42.72;29.88;;;12.80;99.90;;;;;;2052361;28;20074;-70
2023/10/25 00:07:07;;;;;;;38.95;27.95;;;12.80;99.90;;;;;;2055995;28;20034;-70
2023/10/25 00:08:08;;;;;;;37.38;26.85;;;12.80;99.90;;;;;;2051493;28;20026;-71
2023/10/25 00:09:09;;;;;;;36.08;27.25;;;12.80;99.90;;;;;;2055447;28;20117;-71
2023/10/25 00:10:10;;;;;;;38.47;27.05;;;12.80;99.90;;;;;;2059494;28;20157;-70
2023/10/25 00:11:11;;;;;;;34.60;27.40;;;12.80;99.90;;;;;;2051388;28;20112;-70
2023/10/25 00:12:11;;;;;;;35.47;27.30;;;12.80;99.90;;;;;;2055443;28;20096;-69
2023/10/25 00:13:12;;;;;;;37.30;26.40;;;12.80;99.90;;;;;;2055595;28;20049;-71
2023/10/25 00:14:13;;;;;;;32.42;25.80;;;12.80;99.90;;;;;;2059006;28;20037;-71
2023/10/25 00:15:14;;;;;;;36.65;26.00;;;12.80;99.90;;;;;;2053648;28;20026;-71
2023/10/25 00:16:15;;;;;;;32.75;25.10;;;12.80;99.90;;;;;;2058842;28;20122;-71
2023/10/25 00:17:15;;;;;;;34.88;25.90;;;12.80;99.90;;;;;;2053949;28;20148;-71
2023/10/25 00:18:16;;;;;;;35.50;26.55;;;12.80;99.90;;;;;;2043416;28;20028;-70
2023/10/25 00:19:16;;;;;;;33.15;25.70;;;12.80;99.90;;;;;;2056137;28;20145;-70
2023/10/25 00:20:17;;;;;;;34.67;26.23;;;12.80;99.90;;;;;;2061721;28;20058;-69
2023/10/25 00:21:18;;;;;;;36.90;26.70;;;12.80;99.90;;;;;;2052359;28;20035;-70
2023/10/25 00:22:18;;;;;;;34.08;26.33;;;12.80;99.90;;;;;;2060092;28;20034;-71
2023/10/25 00:23:20;;;;;;;34.38;25.88;;;12.80;99.90;;;;;;2057635;28;20034;-71
2023/10/25 00:24:21;;;;;;;36.58;26.80;;;12.80;99.90;;;;;;2056073;28;20039;-71
2023/10/25 00:25:21;;;;;;;36.53;27.08;;;12.80;99.90;;;;;;2055260;28;20030;-68
2023/10/25 00:26:22;;;;;;;32.47;25.38;;;12.80;99.90;;;;;;2059731;28;20061;-74
2023/10/25 00:27:26;;;;;;;38.05;27.02;;;12.80;99.90;;;;;;2052638;28;20031;-76
2023/10/25 00:28:26;;;;;;;36.80;25.92;;;12.80;99.90;;;;;;2046588;28;20089;-74
2023/10/25 00:29:27;;;;;;;35.95;25.17;;;12.80;99.90;;;;;;2061994;28;20062;-71
2023/10/25 00:30:27;;;;;;;35.17;26.02;;;12.80;99.90;;;;;;2049994;28;20030;-71
2023/10/25 00:31:28;;;;;;;32.63;25.05;;;12.80;99.90;;;;;;2044902;28;20039;-71
2023/10/25 00:32:29;;;;;;;34.88;24.83;;;12.80;99.90;;;;;;2054476;28;20057;-72
2023/10/25 00:33:29;;;;;;;31.27;24.70;;;12.80;99.90;;;;;;2055147;28;20170;-71
2023/10/25 00:34:30;;;;;;;33.20;24.80;;;12.80;99.90;;;;;;2056913;28;20062;-72
2023/10/25 00:35:31;;;;;;;38.15;25.55;;;12.80;99.90;;;;;;2062897;28;20552;-72
2023/10/25 00:36:31;;;;;;;33.80;24.60;;;12.80;99.90;;;;;;2048917;28;20034;-72
2023/10/25 00:37:32;;;;;;;31.63;24.20;;;12.80;99.90;;;;;;2043946;28;20039;-72
2023/10/25 00:38:33;;;;;;;33.28;24.83;;;12.80;99.90;;;;;;2054469;28;20096;-72
2023/10/25 00:39:33;;;;;;;35.25;24.52;;;12.80;99.90;;;;;;2045603;28;20042;-71
2023/10/25 00:40:34;;;;;;;30.25;23.65;;;12.80;99.90;;;;;;2045219;28;20037;-72
2023/10/25 00:41:35;;;;;;;34.08;24.98;;;12.90;99.90;;;;;;2059571;28;20044;-72
2023/10/25 00:42:36;;;;;;;32.78;24.60;;;12.80;99.90;;;;;;2062183;28;20049;-72
2023/10/25 00:43:36;;;;;;;33.42;25.23;;;12.80;99.90;;;;;;2058338;28;20033;-72
2023/10/25 00:44:37;;;;;;;33.45;24.25;;;12.80;99.90;;;;;;2056693;28;20820;-72
2023/10/25 00:45:38;;;;;;;36.00;25.50;;;12.80;99.90;;;;;;2062634;28;20041;-71
2023/10/25 00:46:39;;;;;;;33.05;24.10;;;12.80;99.90;;;;;;2062535;28;20046;-71
2023/10/25 00:47:41;;;;;;;34.58;24.90;;;12.80;99.90;;;;;;2055726;28;20425;-71
2023/10/25 00:48:46;;;;;;;31.83;24.05;;;12.80;99.90;;;;;;2062173;28;20023;-71
2023/10/25 00:49:47;;;;;;;30.38;22.70;;;12.80;99.90;;;;;;2052493;28;20187;-72
2023/10/25 00:50:48;;;;;;;34.55;25.40;;;12.80;99.90;;;;;;2038789;28;20103;-71
2023/10/25 00:51:49;;;;;;;34.22;24.42;;;12.80;99.90;;;;;;2045553;28;20031;-72
2023/10/25 00:52:49;;;;;;;32.13;24.10;;;12.70;99.90;;;;;;2058175;28;20556;-72
2023/10/25 00:53:52;;;;;;;30.92;23.85;;;12.80;99.90;;;;;;2051382;28;20058;-72
2023/10/25 00:54:53;;;;;;;30.90;22.98;;;12.80;99.90;;;;;;2053468;28;20026;-72
2023/10/25 00:55:56;;;;;;;31.38;23.23;;;12.80;99.90;;;;;;2061078;28;20058;-72
2023/10/25 00:56:57;;;;;;;32.63;23.77;;;12.80;99.90;;;;;;2056750;28;20029;-72
2023/10/25 00:57:58;;;;;;;29.60;22.85;;;12.80;99.90;;;;;;2042491;28;20498;-71
2023/10/25 00:59:00;;;;;;;29.75;22.98;;;12.80;99.90;;;;;;2046536;28;20041;-72
2023/10/25 01:00:00;;;;;;;30.95;22.77;;;12.80;99.90;;;;;;2048928;28;20037;-71
2023/10/25 01:01:02;;;;;;;30.65;23.15;;;12.80;99.90;;;;;;2044530;28;20778;-70
2023/10/25 01:02:04;;;;;;;28.98;22.00;;;12.80;99.90;;;;;;2052014;28;20715;-71
2023/10/25 01:03:07;;;;;;;31.23;23.23;;;12.90;99.90;;;;;;2057191;28;20034;-72
2023/10/25 01:04:07;;;;;;;30.58;22.67;;;12.80;99.90;;;;;;2062097;28;20034;-72
2023/10/25 01:05:08;;;;;;;31.95;22.88;;;12.80;99.90;;;;;;2059730;28;20596;-72
2023/10/25 01:06:09;;;;;;;26.95;21.17;;;12.80;99.90;;;;;;2062361;28;20046;-71
2023/10/25 01:07:09;;;;;;;30.35;22.42;;;12.80;99.90;;;;;;2049772;28;20046;-71
2023/10/25 01:08:10;;;;;;;29.75;22.23;;;12.80;99.90;;;;;;2054628;28;20121;-71
2023/10/25 01:09:11;;;;;;;30.00;22.05;;;12.80;99.90;;;;;;2062401;28;20036;-72
2023/10/25 01:10:11;;;;;;;27.60;21.25;;;12.90;99.90;;;;;;2062060;28;20026;-72
2023/10/25 01:11:12;;;;;;;29.52;21.50;;;12.80;99.90;;;;;;2055295;28;20046;-72
2023/10/25 01:12:13;;;;;;;29.42;21.25;;;12.90;99.90;;;;;;2062520;28;20040;-71
2023/10/25 01:13:13;;;;;;;27.63;21.75;;;12.80;99.90;;;;;;2058851;28;20196;-71
2023/10/25 01:14:14;;;;;;;29.42;20.88;;;12.90;99.90;;;;;;2060815;28;20042;-71
2023/10/25 01:15:14;;;;;;;27.27;21.27;;;12.90;99.90;;;;;;2045814;28;20552;-71
2023/10/25 01:16:15;;;;;;;27.95;21.27;;;12.90;99.90;;;;;;2058089;28;20022;-72
2023/10/25 01:17:16;;;;;;;28.10;19.98;;;12.90;99.90;;;;;;2058089;28;20497;-72
2023/10/25 01:18:16;;;;;;;27.80;21.27;;;12.90;99.90;;;;;;2058081;28;20026;-72
2023/10/25 01:19:17;;;;;;;25.88;20.08;;;12.90;99.90;;;;;;2046758;28;20038;-72
2023/10/25 01:20:19;;;;;;;25.80;19.60;;;12.90;99.90;;;;;;2050092;28;20027;-72
2023/10/25 01:21:20;;;;;;;25.50;19.25;;;12.90;99.90;;;;;;2054397;28;20169;-73
2023/10/25 01:22:25;;;;;;;27.58;20.98;;;12.90;99.90;;;;;;2058152;28;20042;-72
2023/10/25 01:23:25;;;;;;;27.20;20.80;;;12.90;99.90;;;;;;2045474;28;20058;-72
2023/10/25 01:24:26;;;;;;;25.33;20.38;;;12.90;99.90;;;;;;2041490;28;20090;-72
2023/10/25 01:25:26;;;;;;;27.42;20.50;;;12.90;99.90;;;;;;2055406;28;20067;-72
2023/10/25 01:26:27;;;;;;;28.17;21.67;;;12.90;99.90;;;;;;2050116;28;20062;-71
2023/10/25 01:27:27;;;;;;;26.92;20.42;;;12.90;99.90;;;;;;2050070;28;20038;-72
2023/10/25 01:28:28;;;;;;;29.67;21.60;;;12.90;99.90;;;;;;2058379;28;20053;-71
2023/10/25 01:29:28;;;;;;;28.83;22.20;;;12.90;99.90;;;;;;2060753;28;20112;-71
2023/10/25 01:30:29;;;;;;;28.10;21.10;;;12.90;99.90;;;;;;2058214;28;20065;-71
2023/10/25 01:31:30;;;;;;;27.42;20.08;;;12.90;99.90;;;;;;2058376;28;20149;-71
2023/10/25 01:32:30;;;;;;;28.17;20.70;;;12.90;99.90;;;;;;2050157;28;20034;-71
2023/10/25 01:33:31;;;;;;;27.67;20.15;;;12.80;99.90;;;;;;2046386;28;20126;-72
2023/10/25 01:34:32;;;;;;;29.95;22.23;;;12.90;99.90;;;;;;2061084;28;20061;-71
2023/10/25 01:35:34;;;;;;;27.48;19.95;;;12.80;99.90;;;;;;2059617;28;20482;-71
2023/10/25 01:36:35;;;;;;;29.02;19.85;;;12.80;99.90;;;;;;2059291;28;20043;-71
2023/10/25 01:37:36;;;;;;;25.98;19.45;;;12.80;99.90;;;;;;2059079;28;20045;-71
2023/10/25 01:38:36;;;;;;;25.52;19.20;;;12.80;99.90;;;;;;2054870;28;20030;-71
2023/10/25 01:39:37;;;;;;;25.55;18.55;;;12.80;99.90;;;;;;2060955;28;20692;-71
2023/10/25 01:40:38;;;;;;;23.02;17.85;;;12.80;99.90;;;;;;2051645;28;20015;-72
2023/10/25 01:41:39;;;;;;;27.13;19.33;;;12.80;99.90;;;;;;2049299;28;20034;-71
2023/10/25 01:42:39;;;;;;;23.85;18.45;;;12.80;99.90;;;;;;2046449;28;20027;-71
2023/10/25 01:43:40;;;;;;;25.40;17.92;;;12.80;99.90;;;;;;2045452;28;20039;-71
2023/10/25 01:44:40;;;;;;;24.50;18.98;;;12.80;99.90;;;;;;2047802;28;20035;-71
2023/10/25 01:45:41;;;;;;;24.80;18.80;;;12.90;99.90;;;;;;2039170;28;20081;-71
2023/10/25 01:46:42;;;;;;;24.13;18.50;;;12.90;99.90;;;;;;2034166;29;20047;-71
2023/10/25 01:47:42;;;;;;;24.40;18.55;;;12.80;99.90;;;;;;2041411;28;20046;-71
2023/10/25 01:48:44;;;;;;;26.13;18.70;;;12.80;99.90;;;;;;2049749;28;20086;-71
2023/10/25 01:49:45;;;;;;;23.33;17.40;;;12.90;99.90;;;;;;2049975;28;20041;-71
2023/10/25 01:50:45;;;;;;;22.92;17.67;;;12.80;99.90;;;;;;2046314;28;20027;-71
2023/10/25 01:51:47;;;;;;;23.10;17.50;;;12.90;99.90;;;;;;2058825;28;20045;-71
2023/10/25 01:52:47;;;;;;;20.40;16.40;;;12.80;99.90;;;;;;2049927;28;20038;-71
2023/10/25 01:53:48;;;;;;;22.75;16.50;;;12.80;99.90;;;;;;2042850;28;20127;-72
2023/10/25 01:54:50;;;;;;;21.13;16.27;;;12.90;99.90;;;;;;2050144;28;20045;-71
2023/10/25 01:55:52;;;;;;;20.50;15.73;;;12.90;99.90;;;;;;2053957;28;20014;-71
2023/10/25 01:56:52;;;;;;;20.70;15.43;;;12.90;99.90;;;;;;2058137;28;20030;-71
2023/10/25 01:57:53;;;;;;;19.85;14.93;;;12.90;99.90;;;;;;2049792;28;20098;-72
2023/10/25 01:58:54;;;;;;;21.20;15.65;;;12.90;99.90;;;;;;2051965;28;20015;-72
2023/10/25 01:59:55;;;;;;;20.10;15.77;;;12.90;99.90;;;;;;2045778;28;20573;-72
2023/10/25 02:00:55;;;;;;;19.25;15.40;;;12.90;99.90;;;;;;2038176;28;20543;-72
2023/10/25 02:01:56;;;;;;;21.52;15.57;;;12.90;99.90;;;;;;2042138;28;20640;-71
2023/10/25 02:02:56;;;;;;;20.08;15.57;;;12.90;99.90;;;;;;2044618;28;20027;-72
2023/10/25 02:03:57;;;;;;;20.60;15.30;;;12.90;99.90;;;;;;2043475;28;20031;-72
2023/10/25 02:04:58;;;;;;;19.98;15.10;;;12.90;99.90;;;;;;2036711;28;20116;-72
2023/10/25 02:05:59;;;;;;;20.85;15.45;;;12.90;99.90;;;;;;2043755;28;20039;-73
2023/10/25 02:06:59;;;;;;;23.85;15.52;;;12.90;99.90;;;;;;2053948;28;20113;-72
2023/10/25 02:08:00;;;;;;;21.15;15.43;;;12.90;99.90;;;;;;2058035;28;20634;-72
2023/10/25 02:09:02;;;;;;;18.40;14.85;;;12.90;99.90;;;;;;2061760;28;20093;-72
2023/10/25 02:10:03;;;;;;;21.05;15.00;;;12.90;99.90;;;;;;2048178;28;20067;-73
2023/10/25 02:11:05;;;;;;;19.90;15.43;;;12.90;99.90;;;;;;2047462;28;20058;-72
2023/10/25 02:12:06;;;;;;;22.05;14.55;;;12.90;99.90;;;;;;2047486;28;20556;-72
2023/10/25 02:13:06;;;;;;;20.45;15.15;;;12.90;99.90;;;;;;2044462;28;20042;-72
2023/10/25 02:14:07;;;;;;;19.75;15.20;;;12.90;99.90;;;;;;2050855;28;20082;-72
2023/10/25 02:15:08;;;;;;;19.75;14.88;;;12.90;99.90;;;;;;2043406;28;20094;-72
2023/10/25 02:16:16;;;;;;;18.90;14.73;;;12.80;99.90;;;;;;2057747;28;20065;-72
2023/10/25 02:17:17;;;;;;;19.05;14.70;;;12.90;99.90;;;;;;2057869;28;20735;-72
2023/10/25 02:18:17;;;;;;;21.77;15.55;;;12.90;99.90;;;;;;2053680;28;20034;-72
2023/10/25 02:19:19;;;;;;;17.88;14.90;;;12.90;99.90;;;;;;2058685;28;20034;-72
2023/10/25 02:20:19;;;;;;;22.77;15.32;;;12.90;99.90;;;;;;2058288;28;20487;-72
2023/10/25 02:21:20;;;;;;;25.00;15.65;;;12.80;99.90;;;;;;2053198;28;20092;-71
2023/10/25 02:22:20;;;;;;;20.85;15.90;;;12.90;99.90;;;;;;2046311;28;20031;-72
2023/10/25 02:23:21;;;;;;;22.10;15.85;;;12.80;99.90;;;;;;2057879;28;20062;-71
2023/10/25 02:24:22;;;;;;;19.85;15.38;;;12.80;99.90;;;;;;2057070;28;20405;-71
2023/10/25 02:25:23;;;;;;;21.38;16.48;;;12.90;99.90;;;;;;2046747;28;20038;-71
2023/10/25 02:26:23;;;;;;;19.80;16.05;;;12.80;99.90;;;;;;2050020;28;20206;-71
2023/10/25 02:27:24;;;;;;;22.63;16.33;;;12.90;99.90;;;;;;2058748;28;20034;-71
2023/10/25 02:28:24;;;;;;;21.05;15.95;;;12.80;99.90;;;;;;2062592;28;20029;-72
2023/10/25 02:29:25;;;;;;;21.70;16.33;;;12.80;99.90;;;;;;2059513;28;20401;-72
2023/10/25 02:30:26;;;;;;;21.98;16.15;;;12.80;99.90;;;;;;2061629;28;20069;-71
2023/10/25 02:31:26;;;;;;;22.40;16.92;;;12.80;99.90;;;;;;2050228;28;20039;-72
2023/10/25 02:32:27;;;;;;;22.15;17.23;;;12.80;99.90;;;;;;2051368;28;20030;-73
2023/10/25 02:33:28;;;;;;;24.33;17.70;;;12.80;99.90;;;;;;2059598;28;20026;-72
2023/10/25 02:34:31;;;;;;;22.77;17.83;;;12.80;99.90;;;;;;2055553;28;20026;-71
2023/10/25 02:35:32;;;;;;;21.50;16.60;;;12.80;99.90;;;;;;2057875;28;20038;-72
2023/10/25 02:36:32;;;;;;;23.13;16.83;;;12.70;99.90;;;;;;2057725;28;20065;-71
2023/10/25 02:37:33;;;;;;;23.98;17.00;;;12.70;99.90;;;;;;2058122;28;20127;-72
2023/10/25 02:38:34;;;;;;;21.88;16.58;;;12.70;99.90;;;;;;2054532;28;20390;-74
2023/10/25 02:39:34;;;;;;;22.80;17.33;;;12.70;99.90;;;;;;2056340;28;20122;-72
2023/10/25 02:40:37;;;;;;;20.95;16.92;;;12.80;99.90;;;;;;2048314;28;20030;-70
2023/10/25 02:41:38;;;;;;;21.92;16.73;;;12.80;99.90;;;;;;2052629;28;20138;-72
2023/10/25 02:42:42;;;;;;;21.90;17.52;;;12.80;99.90;;;;;;2055707;28;20026;-73
2023/10/25 02:43:43;;;;;;;25.15;17.75;;;12.80;99.90;;;;;;2050057;28;20516;-72
2023/10/25 02:44:44;;;;;;;22.75;17.00;;;12.80;99.90;;;;;;2049882;28;20110;-71
2023/10/25 02:45:44;;;;;;;21.75;17.52;;;12.80;99.90;;;;;;2061485;28;20056;-72
2023/10/25 02:46:45;;;;;;;23.05;17.30;;;12.80;99.90;;;;;;2061068;28;20045;-72
2023/10/25 02:47:46;;;;;;;22.27;17.20;;;12.80;99.90;;;;;;2057928;28;20547;-72
2023/10/25 02:48:46;;;;;;;24.17;17.42;;;12.90;99.90;;;;;;2049673;28;20656;-72
2023/10/25 02:49:48;;;;;;;22.90;16.83;;;12.80;99.90;;;;;;2054810;28;20061;-73
2023/10/25 02:50:48;;;;;;;22.95;17.58;;;12.80;99.90;;;;;;2054322;28;20106;-71
2023/10/25 02:51:49;;;;;;;22.08;16.70;;;12.80;99.90;;;;;;2054048;28;20688;-70
2023/10/25 02:52:49;;;;;;;22.88;17.70;;;12.80;99.90;;;;;;2049924;28;20038;-71
2023/10/25 02:53:54;;;;;;;21.58;18.05;;;12.80;99.90;;;;;;2045821;28;20050;-72
2023/10/25 02:54:55;;;;;;;24.73;18.48;;;12.80;99.90;;;;;;2054376;28;20496;-72
2023/10/25 02:56:04;;;;;;;23.05;17.85;;;12.80;99.90;;;;;;2061868;28;20128;-73
2023/10/25 02:57:04;;;;;;;24.05;18.45;;;12.80;99.90;;;;;;2050194;28;20027;-70
2023/10/25 02:58:05;;;;;;;24.60;19.13;;;12.80;99.90;;;;;;2043692;28;20023;-71
2023/10/25 02:59:06;;;;;;;23.55;18.25;;;12.80;99.90;;;;;;2047046;28;20106;-71
2023/10/25 03:00:10;;;;;;;25.38;18.50;;;12.80;99.90;;;;;;2061798;28;20080;-72
2023/10/25 03:01:22;;;;;;;23.38;17.77;;;12.80;99.90;;;;;;2057939;28;20556;-73
2023/10/25 03:02:23;;;;;;;22.75;18.27;;;12.80;99.90;;;;;;2041612;28;20485;-74
2023/10/25 03:03:24;;;;;;;22.95;18.35;;;12.80;99.90;;;;;;2050714;28;20034;-72
2023/10/25 03:04:25;;;;;;;24.38;18.27;;;12.80;99.90;;;;;;2063600;28;20045;-71
2023/10/25 03:05:26;;;;;;;22.42;18.17;;;12.80;99.90;;;;;;2052484;28;20737;-74
2023/10/25 03:06:26;;;;;;;22.23;17.70;;;12.80;99.90;;;;;;2054670;28;20038;-72
2023/10/25 03:07:27;;;;;;;25.52;18.83;;;12.90;99.90;;;;;;2063893;28;20128;-71
2023/10/25 03:08:28;;;;;;;23.98;19.13;;;12.90;99.90;;;;;;2052596;28;20041;-71
2023/10/25 03:09:29;;;;;;;24.88;18.55;;;12.90;99.90;;;;;;2053810;28;20042;-71
2023/10/25 03:10:29;;;;;;;24.55;19.25;;;12.90;99.90;;;;;;2062847;28;20022;-70
2023/10/25 03:11:30;;;;;;;24.40;19.67;;;12.80;99.90;;;;;;2056713;28;20417;-72
2023/10/25 03:12:32;;;;;;;26.60;19.80;;;12.80;99.90;;;;;;2051283;28;20528;-72
2023/10/25 03:13:33;;;;;;;23.13;18.98;;;12.80;99.90;;;;;;2062043;28;20035;-72
2023/10/25 03:14:33;;;;;;;24.48;19.40;;;12.80;99.90;;;;;;2059020;28;20046;-72
2023/10/25 03:15:34;;;;;;;23.70;19.38;;;12.80;99.90;;;;;;2051373;28;20034;-72
2023/10/25 03:16:34;;;;;;;23.30;19.45;;;12.80;99.90;;;;;;2053295;28;20026;-70
2023/10/25 03:17:35;;;;;;;26.70;20.05;;;12.70;99.90;;;;;;2054960;28;20649;-71
2023/10/25 03:18:35;;;;;;;24.27;19.70;;;12.80;99.90;;;;;;2049176;28;20521;-73
2023/10/25 03:19:36;;;;;;;24.17;19.45;;;12.70;99.90;;;;;;2053268;28;20697;-74
2023/10/25 03:20:37;;;;;;;23.85;19.88;;;12.70;99.90;;;;;;2061442;28;20077;-72
2023/10/25 03:21:37;;;;;;;24.02;18.73;;;12.70;99.90;;;;;;2060776;28;20912;-72
2023/10/25 03:22:38;;;;;;;23.40;19.85;;;12.70;99.90;;;;;;2063112;28;20045;-71
2023/10/25 03:23:40;;;;;;;24.85;19.85;;;12.70;99.90;;;;;;2056321;28;20595;-71
2023/10/25 03:24:40;;;;;;;26.60;20.38;;;12.70;99.90;;;;;;2057255;28;20042;-73
2023/10/25 03:25:41;;;;;;;27.90;20.80;;;12.70;99.90;;;;;;2060438;28;20034;-72
2023/10/25 03:26:41;;;;;;;26.40;19.92;;;12.70;99.90;;;;;;2051824;28;20087;-71
2023/10/25 03:27:42;;;;;;;25.70;19.83;;;12.70;99.90;;;;;;2053086;28;20531;-71
2023/10/25 03:28:43;;;;;;;28.02;20.65;;;12.70;99.90;;;;;;2059928;28;20109;-72
2023/10/25 03:29:45;;;;;;;27.90;21.38;;;12.70;99.90;;;;;;2055147;28;20022;-72
2023/10/25 03:30:46;;;;;;;30.10;21.52;;;12.70;99.90;;;;;;2056205;28;20027;-72
2023/10/25 03:31:46;;;;;;;27.30;21.25;;;12.70;99.90;;;;;;2054148;28;20069;-71
2023/10/25 03:32:47;;;;;;;25.42;21.20;;;12.70;99.90;;;;;;2051682;28;20033;-72
2023/10/25 03:33:48;;;;;;;25.00;20.17;;;12.70;99.90;;;;;;2051855;28;20027;-71
2023/10/25 03:34:51;;;;;;;24.75;19.88;;;12.70;99.90;;;;;;2054914;28;20061;-71
2023/10/25 03:35:53;;;;;;;24.15;20.15;;;12.70;99.90;;;;;;2055273;28;20045;-73
2023/10/25 03:36:53;;;;;;;23.08;19.48;;;12.60;99.90;;;;;;2062962;28;20038;-73
2023/10/25 03:37:55;;;;;;;23.55;19.23;;;12.70;99.90;;;;;;2057032;28;20555;-72
2023/10/25 03:38:55;;;;;;;24.13;19.38;;;12.60;99.90;;;;;;2059141;28;20025;-70
2023/10/25 03:39:56;;;;;;;25.10;20.40;;;12.60;99.90;;;;;;2063486;28;20546;-73
2023/10/25 03:41:04;;;;;;;22.50;19.13;;;12.60;99.90;;;;;;2059664;28;20122;-71
2023/10/25 03:42:05;;;;;;;23.13;19.23;;;12.60;99.90;;;;;;2060461;28;20027;-71
2023/10/25 03:43:05;;;;;;;24.25;19.10;;;12.60;99.90;;;;;;2060858;28;20507;-72
2023/10/25 03:44:06;;;;;;;25.63;20.52;;;12.60;99.90;;;;;;2053291;28;20106;-72
2023/10/25 03:45:07;;;;;;;23.38;19.80;;;12.60;99.90;;;;;;2046724;28;20027;-72
2023/10/25 03:46:08;;;;;;;24.90;19.83;;;12.60;99.90;;;;;;2059632;28;20030;-72
2023/10/25 03:47:09;;;;;;;24.52;20.20;;;12.60;99.90;;;;;;2054978;28;20026;-71
2023/10/25 03:48:10;;;;;;;23.38;20.40;;;12.60;99.90;;;;;;2051197;28;20556;-72
2023/10/25 03:49:11;;;;;;;27.20;21.40;;;12.60;99.90;;;;;;2056159;28;20039;-72
2023/10/25 03:50:11;;;;;;;24.55;20.48;;;12.60;99.90;;;;;;2054782;28;20034;-72
2023/10/25 03:51:12;;;;;;;28.42;21.00;;;12.60;99.90;;;;;;2050578;28;20046;-72
2023/10/25 03:52:12;;;;;;;25.25;20.15;;;12.60;99.90;;;;;;2048015;28;20028;-72
2023/10/25 03:53:13;;;;;;;25.98;20.77;;;12.60;99.90;;;;;;2058733;28;20481;-73
2023/10/25 03:54:13;;;;;;;25.95;20.50;;;12.50;99.90;;;;;;2058801;28;20517;-72
2023/10/25 03:55:14;;;;;;;27.20;21.50;;;12.50;99.90;;;;;;2056450;28;20524;-72
2023/10/25 03:56:15;;;;;;;24.75;21.08;;;12.50;99.90;;;;;;2051714;28;20054;-72
2023/10/25 03:57:15;;;;;;;27.45;21.48;;;12.50;99.90;;;;;;2058844;28;20033;-73
2023/10/25 03:58:16;;;;;;;28.42;21.75;;;12.50;99.90;;;;;;2055724;28;20033;-72
2023/10/25 03:59:17;;;;;;;24.73;21.08;;;12.50;99.90;;;;;;2059787;28;20399;-71
2023/10/25 04:00:18;;;;;;;26.13;21.60;;;12.50;99.90;;;;;;2058759;28;20026;-71
2023/10/25 04:01:18;;;;;;;28.35;21.70;;;12.50;99.90;;;;;;2056172;28;20042;-72
2023/10/25 04:02:19;;;;;;;24.65;20.65;;;12.50;99.90;;;;;;2058667;28;20034;-71
2023/10/25 04:03:19;;;;;;;26.25;21.27;;;12.50;99.90;;;;;;2054341;28;20050;-71
2023/10/25 04:04:20;;;;;;;23.23;20.40;;;12.50;99.90;;;;;;2058238;28;20663;-71
2023/10/25 04:05:21;;;;;;;26.08;21.17;;;12.50;99.90;;;;;;2050658;28;20026;-71
2023/10/25 04:06:21;;;;;;;27.02;20.92;;;12.50;99.90;;;;;;2063147;28;20089;-70
2023/10/25 04:07:22;;;;;;;27.65;21.02;;;12.50;99.90;;;;;;2059433;28;20049;-71
2023/10/25 04:08:23;;;;;;;27.83;21.08;;;12.40;99.90;;;;;;2055742;28;20481;-71
2023/10/25 04:09:24;;;;;;;24.75;20.80;;;12.50;99.90;;;;;;2059158;28;20375;-72
2023/10/25 04:10:28;;;;;;;25.73;20.67;;;12.40;99.90;;;;;;2062569;28;20022;-72
2023/10/25 04:11:28;;;;;;;27.17;20.77;;;12.50;99.90;;;;;;2057006;28;20068;-73
2023/10/25 04:12:29;;;;;;;29.52;22.27;;;12.40;99.90;;;;;;2058723;28;20030;-70
2023/10/25 04:13:30;;;;;;;24.80;21.45;;;12.40;99.90;;;;;;2063218;28;20076;-71
2023/10/25 04:14:31;;;;;;;26.95;21.33;;;12.50;99.90;;;;;;2055955;28;20111;-73
2023/10/25 04:15:35;;;;;;;26.98;20.65;;;12.40;99.90;;;;;;2061711;28;20624;-71
2023/10/25 04:16:35;;;;;;;26.42;20.88;;;12.50;99.90;;;;;;2062765;28;20103;-70
2023/10/25 04:17:36;;;;;;;23.67;20.80;;;12.50;99.90;;;;;;2055489;28;20541;-70
2023/10/25 04:18:37;;;;;;;26.88;20.88;;;12.50;99.90;;;;;;2057306;28;20748;-71
2023/10/25 04:19:38;;;;;;;28.27;20.45;;;12.50;99.90;;;;;;2049082;28;20057;-73
2023/10/25 04:20:40;;;;;;;25.77;20.25;;;12.50;99.90;;;;;;2054769;28;20088;-72
2023/10/25 04:21:41;;;;;;;24.77;21.48;;;12.50;99.90;;;;;;2057747;28;20525;-72
2023/10/25 04:22:41;;;;;;;24.63;20.83;;;12.50;99.90;;;;;;2061245;28;20600;-72
2023/10/25 04:23:42;;;;;;;26.67;20.88;;;12.50;99.90;;;;;;2062714;28;20042;-72
2023/10/25 04:24:42;;;;;;;25.00;20.13;;;12.50;99.90;;;;;;2061481;28;20045;-72
2023/10/25 04:25:43;;;;;;;25.35;20.40;;;12.40;99.90;;;;;;2060845;28;20716;-72
2023/10/25 04:26:43;;;;;;;27.10;21.75;;;12.40;99.90;;;;;;2054459;28;20037;-73
2023/10/25 04:27:44;;;;;;;26.27;20.98;;;12.40;99.90;;;;;;2043979;28;20527;-71
2023/10/25 04:28:44;;;;;;;25.30;20.98;;;12.40;99.90;;;;;;2055509;28;20027;-71
2023/10/25 04:29:45;;;;;;;25.52;21.20;;;12.40;99.90;;;;;;2054607;28;20114;-71
2023/10/25 04:30:46;;;;;;;26.23;21.52;;;12.40;99.90;;;;;;2061595;28;20088;-72
2023/10/25 04:31:46;;;;;;;26.17;20.75;;;12.40;99.90;;;;;;2056335;28;20834;-71
2023/10/25 04:32:47;;;;;;;28.45;21.85;;;12.40;99.90;;;;;;2053974;28;20129;-72
2023/10/25 04:33:47;;;;;;;25.63;21.15;;;12.40;99.90;;;;;;2049970;28;20091;-71
2023/10/25 04:34:48;;;;;;;25.58;21.80;;;12.40;99.90;;;;;;2056082;28;20473;-72
2023/10/25 04:35:48;;;;;;;28.20;21.83;;;12.40;99.90;;;;;;2062788;28;20033;-72
2023/10/25 04:36:49;;;;;;;28.40;21.38;;;12.40;99.90;;;;;;2059204;28;20066;-73
2023/10/25 04:37:50;;;;;;;27.38;21.33;;;12.40;99.90;;;;;;2059193;28;20031;-72
2023/10/25 04:38:50;;;;;;;28.85;22.15;;;12.40;99.90;;;;;;2062799;28;20026;-71
2023/10/25 04:39:51;;;;;;;31.45;22.52;;;12.40;99.90;;;;;;2062913;28;20030;-71
2023/10/25 04:40:52;;;;;;;27.45;22.27;;;12.40;99.90;;;;;;2058872;28;20041;-72
2023/10/25 04:41:53;;;;;;;27.30;21.98;;;12.30;99.90;;;;;;2062384;28;20030;-71
2023/10/25 04:42:53;;;;;;;30.67;22.65;;;12.40;99.90;;;;;;2062498;28;20101;-72
2023/10/25 04:43:54;;;;;;;30.20;23.75;;;12.30;99.90;;;;;;2058607;28;20026;-71
2023/10/25 04:44:54;;;;;;;30.08;23.27;;;12.30;99.90;;;;;;2059072;28;20078;-71
2023/10/25 04:45:55;;;;;;;26.70;22.08;;;12.30;99.90;;;;;;2059304;28;20019;-72
2023/10/25 04:46:56;;;;;;;26.17;21.27;;;12.30;99.90;;;;;;2062970;28;20040;-71
2023/10/25 04:47:56;;;;;;;28.77;22.35;;;12.30;99.90;;;;;;2059375;28;20022;-71
2023/10/25 04:48:57;;;;;;;27.30;21.67;;;12.30;99.90;;;;;;2062311;28;20030;-71
2023/10/25 04:50:01;;;;;;;28.50;21.92;;;12.30;99.90;;;;;;2051019;28;20080;-71
2023/10/25 04:51:03;;;;;;;27.30;21.60;;;12.30;99.90;;;;;;2051893;28;20106;-71
2023/10/25 04:52:04;;;;;;;29.40;21.88;;;12.30;99.90;;;;;;2061930;28;20034;-71
2023/10/25 04:53:05;;;;;;;27.73;20.60;;;12.30;99.90;;;;;;2061361;28;20018;-71
2023/10/25 04:54:07;;;;;;;27.58;20.98;;;12.30;99.90;;;;;;2044435;28;20814;-72
2023/10/25 04:55:08;;;;;;;26.88;21.13;;;12.20;99.90;;;;;;2038519;28;20070;-72
2023/10/25 04:56:09;;;;;;;25.20;21.20;;;12.20;99.90;;;;;;2054066;28;20580;-70
2023/10/25 04:57:09;;;;;;;26.27;21.05;;;12.20;99.90;;;;;;2061147;28;20034;-71
2023/10/25 04:58:10;;;;;;;24.80;20.92;;;12.20;99.90;;;;;;2056900;28;20115;-71
2023/10/25 04:59:10;;;;;;;27.17;21.17;;;12.20;99.90;;;;;;2054385;28;20044;-71
2023/10/25 05:00:12;;;;;;;25.23;20.48;;;12.20;99.90;;;;;;2048808;28;20709;-71
2023/10/25 05:01:13;;;;;;;27.83;21.25;;;12.20;99.90;;;;;;2057933;28;20034;-71
2023/10/25 05:02:14;;;;;;;26.45;21.50;;;12.20;99.90;;;;;;2053251;28;20039;-71
2023/10/25 05:03:14;;;;;;;24.63;20.02;;;12.20;99.90;;;;;;2050448;28;20125;-71
2023/10/25 05:04:15;;;;;;;25.67;20.10;;;12.20;99.90;;;;;;2057409;28;20457;-71
2023/10/25 05:05:16;;;;;;;24.52;20.58;;;12.20;99.90;;;;;;2052622;28;20749;-72
2023/10/25 05:06:16;;;;;;;26.02;20.65;;;12.20;99.90;;;;;;2056709;28;20038;-71
2023/10/25 05:07:17;;;;;;;23.75;20.08;;;12.20;99.90;;;;;;2059121;28;20026;-71
2023/10/25 05:08:18;;;;;;;26.02;20.90;;;12.20;99.90;;;;;;2061710;28;20037;-71
2023/10/25 05:09:19;;;;;;;24.63;19.48;;;12.20;99.90;;;;;;2053579;28;20086;-71